Time;durP1;ratioP1;P1;durP2;ratioP2;P2;SDS_P1;SDS_P2;PMS_P1;PMS_P2;Temp;Humidity;BMP_temperature;BMP_pressure;BME280_temperature;BME280_humidity;BME280_pressure;Samples;Min_cycle;Max_cycle;Signal;HPM_P1;HPM_P2
2021/06/25 00:01:41;;;;;;;;;;;;;;;31.30;46.09;100605.05;1802745;79;20377;-79
2021/06/25 00:04:06;;;;;;;;;;;;;;;31.26;46.21;100605.34;1803024;79;20143;-78
2021/06/25 00:06:32;;;;;;;;;;;;;;;31.26;46.17;100610.88;1803094;79;20681;-78
2021/06/25 00:09:00;;;;;;;;;;;;;;;31.31;46.11;100605.88;1802462;79;20162;-78
2021/06/25 00:11:26;;;;;;;;;;;;;;;31.29;45.98;100603.37;1802846;79;20245;-79
2021/06/25 00:13:53;;;;;;;;;;;;;;;31.29;45.84;100607.53;1802829;79;20128;-78
2021/06/25 00:16:19;;;;;;;;;;;;;;;31.31;45.71;100602.55;1803127;79;20132;-79
2021/06/25 00:18:45;;;;;;;;;;;;;;;31.32;45.71;100600.03;1802844;79;20752;-79
2021/06/25 00:21:11;;;;;;;;;;;;;;;31.33;45.75;100587.84;1802740;79;20164;-79
2021/06/25 00:23:38;;;;;;;;;;;;;;;31.32;45.82;100578.45;1802878;79;20127;-78
2021/06/25 00:26:04;;;;;;;;;;;;;;;31.31;45.85;100575.42;1803344;78;20183;-78
2021/06/25 00:28:30;;;;;;;;;;;;;;;31.30;45.94;100575.17;1805180;79;20091;-78
2021/06/25 00:30:56;;;;;;;;;;;;;;;31.28;46.10;100577.39;1806552;79;20151;-78
2021/06/25 00:33:22;;;;;;;;;;;;;;;31.25;46.46;100564.95;1776553;81;20165;-78
2021/06/25 00:35:48;;;;;;;;;;;;;;;31.22;46.10;100565.52;1776520;81;20136;-79
2021/06/25 00:38:14;;;;;;;;;;;;;;;31.15;45.91;100566.42;1743948;82;20138;-78
2021/06/25 00:40:40;;;;;;;;;;;;;;;31.12;45.93;100565.64;1776128;81;20144;-78
2021/06/25 00:43:06;;;;;;;;;;;;;;;31.10;46.05;100569.80;1773194;81;20325;-79
2021/06/25 00:45:33;;;;;;;;;;;;;;;31.09;46.10;100573.13;1805663;79;20175;-78
2021/06/25 00:47:59;;;;;;;;;;;;;;;31.08;46.31;100559.86;1805850;79;20178;-78
2021/06/25 00:50:27;;;;;;;;;;;;;;;31.09;46.40;100553.77;1805280;79;20155;-76
2021/06/25 00:52:54;;;;;;;;;;;;;;;31.09;46.29;100549.62;1805506;79;20132;-76
2021/06/25 00:55:21;;;;;;;;;;;;;;;31.11;46.22;100561.20;1805675;79;20798;-76
2021/06/25 00:57:47;;;;;;;;;;;;;;;31.12;46.19;100551.80;1806212;79;20147;-77
2021/06/25 01:00:15;;;;;;;;;;;;;;;31.11;46.27;100540.45;1806238;79;20147;-77
2021/06/25 01:02:41;;;;;;;;;;;;;;;31.11;46.34;100534.92;1806387;79;20154;-77
2021/06/25 01:05:07;;;;;;;;;;;;;;;31.12;46.30;100538.53;1806244;79;20166;-77
2021/06/25 01:07:33;;;;;;;;;;;;;;;31.10;46.15;100540.19;1806379;79;20127;-77
2021/06/25 01:10:01;;;;;;;;;;;;;;;31.09;46.10;100528.86;1805222;78;20258;-76
2021/06/25 01:12:27;;;;;;;;;;;;;;;31.07;46.19;100533.32;1805887;79;20128;-79
2021/06/25 01:14:55;;;;;;;;;;;;;;;31.04;46.34;100528.36;1805567;79;20149;-78
2021/06/25 01:17:30;;;;;;;;;;;;;;;31.03;46.51;100532.81;1805768;79;20437;-77
2021/06/25 01:19:58;;;;;;;;;;;;;;;31.00;46.61;100529.23;1805804;79;20167;-77
2021/06/25 01:22:34;;;;;;;;;;;;;;;31.00;46.73;100529.23;1806100;79;20132;-77
2021/06/25 01:25:23;;;;;;;;;;;;;;;30.98;46.92;100528.72;1805730;79;20127;-77
2021/06/25 01:27:55;;;;;;;;;;;;;;;30.98;47.09;100523.19;1806000;79;20135;-76
2021/06/25 01:30:24;;;;;;;;;;;;;;;30.96;47.19;100524.84;1805016;79;20139;-77
2021/06/25 01:32:50;;;;;;;;;;;;;;;30.96;47.26;100524.02;1804861;79;20142;-77
2021/06/25 01:35:16;;;;;;;;;;;;;;;30.94;47.27;100527.66;1805036;79;20201;-77
2021/06/25 01:37:43;;;;;;;;;;;;;;;30.90;47.35;100529.35;1805352;79;20168;-77
2021/06/25 01:40:11;;;;;;;;;;;;;;;30.87;47.31;100533.52;1803515;79;20194;-77
2021/06/25 01:42:38;;;;;;;;;;;;;;;30.81;47.37;100534.12;1804778;79;20452;-77
2021/06/25 01:45:07;;;;;;;;;;;;;;;30.77;47.51;100532.23;1804498;79;20151;-77
2021/06/25 01:47:35;;;;;;;;;;;;;;;30.74;47.72;100535.02;1804949;79;20151;-77
2021/06/25 01:50:09;;;;;;;;;;;;;;;30.73;47.85;100534.75;1804280;79;20148;-77
2021/06/25 01:52:35;;;;;;;;;;;;;;;30.73;47.88;100540.84;1804640;79;20276;-77
2021/06/25 01:55:01;;;;;;;;;;;;;;;30.73;47.60;100531.98;1805581;78;20172;-77
2021/06/25 01:57:30;;;;;;;;;;;;;;;30.75;47.31;100534.45;1805969;79;20409;-78
2021/06/25 01:59:56;;;;;;;;;;;;;;;30.80;46.92;100538.02;1805599;79;20477;-78
2021/06/25 02:02:24;;;;;;;;;;;;;;;30.74;46.79;100535.02;1778828;79;20135;-77
2021/06/25 02:04:50;;;;;;;;;;;;;;;30.75;46.72;100532.54;1802697;79;20148;-77
2021/06/25 02:07:16;;;;;;;;;;;;;;;30.76;46.95;100530.59;1803846;79;20229;-76
2021/06/25 02:09:42;;;;;;;;;;;;;;;30.73;47.36;100530.60;1805266;79;20432;-76
2021/06/25 02:12:09;;;;;;;;;;;;;;;30.72;47.67;100540.59;1805698;79;20135;-76
2021/06/25 02:14:36;;;;;;;;;;;;;;;30.72;47.80;100540.02;1804851;79;20314;-76
2021/06/25 02:17:02;;;;;;;;;;;;;;;30.71;47.86;100543.05;1805796;79;20620;-76
2021/06/25 02:19:28;;;;;;;;;;;;;;;30.67;48.15;100541.42;1806446;79;20216;-77
2021/06/25 02:21:53;;;;;;;;;;;;;;;30.70;48.39;100542.20;1806225;79;20155;-77
2021/06/25 02:24:20;;;;;;;;;;;;;;;30.73;48.66;100543.05;1806665;79;20186;-77
2021/06/25 02:26:46;;;;;;;;;;;;;;;30.72;48.85;100537.82;1806147;79;20166;-77
2021/06/25 02:29:11;;;;;;;;;;;;;;;30.64;49.10;100541.99;1806306;79;20138;-76
2021/06/25 02:31:38;;;;;;;;;;;;;;;30.63;49.21;100544.50;1809711;78;20163;-77
2021/06/25 02:34:04;;;;;;;;;;;;;;;30.64;49.33;100540.61;1801749;79;20128;-77
2021/06/25 02:36:30;;;;;;;;;;;;;;;30.63;49.41;100533.44;1800775;79;20225;-77
2021/06/25 02:38:57;;;;;;;;;;;;;;;30.63;49.52;100538.97;1801067;79;20159;-77
2021/06/25 02:41:23;;;;;;;;;;;;;;;30.65;49.56;100540.05;1800850;79;20218;-77
2021/06/25 02:43:50;;;;;;;;;;;;;;;30.72;49.40;100535.05;1801359;79;20198;-78
2021/06/25 02:46:17;;;;;;;;;;;;;;;30.70;49.41;100536.67;1801468;79;20417;-78
2021/06/25 02:48:44;;;;;;;;;;;;;;;30.65;49.58;100537.28;1802702;79;20120;-78
2021/06/25 02:51:10;;;;;;;;;;;;;;;30.64;49.55;100534.26;1802009;79;20304;-78
2021/06/25 02:53:38;;;;;;;;;;;;;;;30.62;49.61;100535.94;1800588;79;20175;-77
2021/06/25 02:56:04;;;;;;;;;;;;;;;30.61;49.70;100530.12;1800919;79;20251;-77
2021/06/25 02:58:29;;;;;;;;;;;;;;;30.67;49.63;100536.45;1800894;79;20343;-77
2021/06/25 03:00:56;;;;;;;;;;;;;;;30.61;49.70;100532.88;1800872;79;20195;-77
2021/06/25 03:03:22;;;;;;;;;;;;;;;30.60;49.75;100529.86;1801048;79;20302;-78
2021/06/25 03:05:48;;;;;;;;;;;;;;;30.61;49.69;100527.36;1801551;79;20175;-79
2021/06/25 03:08:14;;;;;;;;;;;;;;;30.58;49.70;100525.19;1803218;79;20225;-79
2021/06/25 03:10:46;;;;;;;;;;;;;;;30.57;49.72;100524.94;1802965;78;20421;-78
2021/06/25 03:13:13;;;;;;;;;;;;;;;30.56;49.78;100528.23;1802916;79;20163;-78
2021/06/25 03:15:39;;;;;;;;;;;;;;;30.61;49.69;100524.59;1803167;79;20136;-78
2021/06/25 03:18:07;;;;;;;;;;;;;;;30.60;49.56;100517.42;1802541;79;20163;-77
2021/06/25 03:20:35;;;;;;;;;;;;;;;30.60;49.39;100517.42;1802396;79;20116;-77
2021/06/25 03:23:00;;;;;;;;;;;;;;;30.61;49.30;100513.53;1772886;81;20421;-77
2021/06/25 03:25:26;;;;;;;;;;;;;;;30.62;49.10;100510.23;1802704;79;20158;-77
2021/06/25 03:27:52;;;;;;;;;;;;;;;30.62;49.16;100521.30;1772878;81;20215;-76
2021/06/25 03:30:19;;;;;;;;;;;;;;;30.61;49.07;100513.53;1802927;79;20248;-77
2021/06/25 03:32:45;;;;;;;;;;;;;;;30.61;48.98;100520.45;1802373;79;20120;-77
2021/06/25 03:35:12;;;;;;;;;;;;;;;30.63;48.87;100519.61;1802727;79;20145;-77
2021/06/25 03:37:38;;;;;;;;;;;;;;;30.64;48.75;100516.29;1802482;79;20135;-78
2021/06/25 03:40:07;;;;;;;;;;;;;;;30.65;48.60;100511.02;1802024;79;20181;-77
2021/06/25 03:42:33;;;;;;;;;;;;;;;30.66;48.36;100512.13;1770424;81;20576;-77
2021/06/25 03:44:58;;;;;;;;;;;;;;;30.67;48.22;100502.71;1803733;78;20238;-77
2021/06/25 03:47:24;;;;;;;;;;;;;;;30.67;48.01;100504.09;1817291;78;20740;-77
2021/06/25 03:49:50;;;;;;;;;;;;;;;30.68;47.97;100500.21;1805584;79;20518;-78
2021/06/25 03:52:16;;;;;;;;;;;;;;;30.66;48.01;100503.84;1805075;79;20198;-77
2021/06/25 03:54:43;;;;;;;;;;;;;;;30.68;47.68;100508.50;1804142;79;20627;-77
2021/06/25 03:57:09;;;;;;;;;;;;;;;30.67;47.25;100510.19;1775454;78;20510;-77
2021/06/25 03:59:37;;;;;;;;;;;;;;;30.66;47.13;100509.90;1789749;78;20174;-77
2021/06/25 04:02:09;;;;;;;;;;;;;;;30.62;47.19;100506.91;1803763;78;20139;-77
2021/06/25 04:04:32;;;;;;;;;;;;;;;30.62;47.22;100500.00;1807797;78;20194;-77
2021/06/25 04:06:57;;;;;;;;;;;;;;;30.63;47.22;100499.44;1812494;78;20177;-77
2021/06/25 04:09:24;;;;;;;;;;;;;;;30.61;47.34;100499.71;1801645;78;20178;-77
2021/06/25 04:11:50;;;;;;;;;;;;;;;30.60;47.39;100500.83;1802353;78;20159;-77
2021/06/25 04:14:16;;;;;;;;;;;;;;;30.62;47.35;100506.91;1804041;78;20581;-77
2021/06/25 04:16:42;;;;;;;;;;;;;;;30.67;47.28;100509.62;1795217;78;20201;-76
2021/06/25 04:19:08;;;;;;;;;;;;;;;30.68;47.40;100505.74;1803848;78;20129;-77
2021/06/25 04:21:34;;;;;;;;;;;;;;;30.69;47.49;100506.56;1801733;78;20146;-77
2021/06/25 04:24:00;;;;;;;;;;;;;;;30.70;47.61;100506.26;1800695;79;20221;-76
2021/06/25 04:26:26;;;;;;;;;;;;;;;30.70;47.69;100505.44;1800637;79;20193;-78
2021/06/25 04:28:52;;;;;;;;;;;;;;;30.71;47.82;100514.87;1770283;79;20169;-78
2021/06/25 04:31:18;;;;;;;;;;;;;;;30.72;47.86;100515.14;1802268;78;20181;-78
2021/06/25 04:33:44;;;;;;;;;;;;;;;30.74;48.05;100518.98;1810814;78;20213;-78
2021/06/25 04:36:10;;;;;;;;;;;;;;;30.77;48.08;100515.64;1810758;78;20143;-78
2021/06/25 04:38:36;;;;;;;;;;;;;;;30.80;48.10;100514.51;1802541;78;20150;-78
2021/06/25 04:41:02;;;;;;;;;;;;;;;30.83;48.04;100508.37;1803808;79;20147;-78
2021/06/25 04:43:28;;;;;;;;;;;;;;;30.86;47.86;100501.45;1803913;78;20447;-78
2021/06/25 04:45:54;;;;;;;;;;;;;;;30.89;47.37;100500.05;1802793;78;20578;-78
2021/06/25 04:48:20;;;;;;;;;;;;;;;30.92;47.34;100504.41;1809268;78;20736;-78
2021/06/25 04:50:46;;;;;;;;;;;;;;;30.97;47.42;100508.51;1806798;78;20424;-79
2021/06/25 04:53:12;;;;;;;;;;;;;;;30.94;47.22;100505.53;1801914;78;20504;-78
2021/06/25 04:55:41;;;;;;;;;;;;;;;30.95;47.15;100505.78;1803189;78;20178;-78
2021/06/25 04:58:14;;;;;;;;;;;;;;;30.92;46.77;100499.45;1804335;78;20280;-78
2021/06/25 05:00:43;;;;;;;;;;;;;;;30.93;46.54;100498.32;1803674;78;20545;-79
2021/06/25 05:03:10;;;;;;;;;;;;;;;30.90;46.28;100487.86;1810131;78;20154;-78
2021/06/25 05:05:37;;;;;;;;;;;;;;;30.90;46.06;100493.39;1809219;78;20183;-78
2021/06/25 05:08:04;;;;;;;;;;;;;;;30.87;45.92;100492.02;1805566;78;20139;-78
2021/06/25 05:10:30;;;;;;;;;;;;;;;30.85;45.98;100497.04;1781061;78;20418;-78
2021/06/25 05:12:56;;;;;;;;;;;;;;;30.85;46.05;100498.98;1803269;78;20182;-77
2021/06/25 05:15:22;;;;;;;;;;;;;;;30.86;46.24;100505.59;1808689;78;20182;-78
2021/06/25 05:17:50;;;;;;;;;;;;;;;30.89;46.49;100503.64;1801685;78;20150;-78
2021/06/25 05:20:19;;;;;;;;;;;;;;;30.94;46.62;100498.61;1799866;78;20164;-78
2021/06/25 05:22:46;;;;;;;;;;;;;;;31.01;46.53;100497.69;1802855;78;20151;-78
2021/06/25 05:25:12;;;;;;;;;;;;;;;31.09;46.63;100497.05;1800741;78;20683;-78
2021/06/25 05:27:38;;;;;;;;;;;;;;;31.18;46.61;100495.84;1803766;78;20141;-77
2021/06/25 05:30:06;;;;;;;;;;;;;;;31.29;46.37;100496.83;1806519;78;20187;-78
2021/06/25 05:32:33;;;;;;;;;;;;;;;31.33;45.96;100504.80;1798450;78;20217;-78
2021/06/25 05:35:01;;;;;;;;;;;;;;;31.40;45.92;100501.69;1801936;78;20155;-77
2021/06/25 05:37:27;;;;;;;;;;;;;;;31.48;45.75;100508.53;1804939;78;20173;-76
2021/06/25 05:39:53;;;;;;;;;;;;;;;31.52;45.75;100502.63;1817372;78;20177;-76
2021/06/25 05:42:19;;;;;;;;;;;;;;;31.58;45.79;100498.13;1803210;78;20169;-77
2021/06/25 05:44:45;;;;;;;;;;;;;;;31.67;45.73;100499.67;1799090;78;20139;-77
2021/06/25 05:47:11;;;;;;;;;;;;;;;31.71;45.27;100496.58;1798343;78;20345;-77
2021/06/25 05:49:37;;;;;;;;;;;;;;;31.76;44.64;100495.68;1801346;78;20162;-76
2021/06/25 05:52:03;;;;;;;;;;;;;;;31.81;44.60;100499.19;1804488;78;20169;-78
2021/06/25 05:54:30;;;;;;;;;;;;;;;31.88;44.03;100500.22;1747847;79;20148;-78
2021/06/25 05:56:56;;;;;;;;;;;;;;;31.95;43.92;100507.61;1741398;81;20140;-77
2021/06/25 05:59:22;;;;;;;;;;;;;;;32.03;44.36;100508.89;1746872;80;20161;-78
2021/06/25 06:01:48;;;;;;;;;;;;;;;32.13;44.84;100505.95;1804074;78;20768;-77
2021/06/25 06:04:16;;;;;;;;;;;;;;;32.24;44.83;100500.50;1802702;78;20139;-76
2021/06/25 06:06:43;;;;;;;;;;;;;;;32.38;44.72;100513.62;1804595;78;20163;-76
2021/06/25 06:09:10;;;;;;;;;;;;;;;32.50;44.46;100516.75;1800962;78;20182;-77
2021/06/25 06:11:36;;;;;;;;;;;;;;;32.62;43.33;100514.33;1801363;78;20121;-77
2021/06/25 06:14:02;;;;;;;;;;;;;;;32.73;42.44;100512.19;1799365;78;20171;-77
2021/06/25 06:16:29;;;;;;;;;;;;;;;32.83;41.46;100521.13;1799718;78;20880;-76
2021/06/25 06:18:55;;;;;;;;;;;;;;;33.12;41.04;100520.66;1776125;78;20154;-76
2021/06/25 06:21:22;;;;;;;;;;;;;;;33.06;41.08;100525.46;1799741;78;20122;-77
2021/06/25 06:32:25;;;;;;;;;;;;;;;33.58;39.56;100519.17;1802529;78;20140;-77
2021/06/25 06:34:48;;;;;;;;;;;;;;;33.85;39.11;100522.47;1796842;78;20541;-78
2021/06/25 06:37:17;;;;;;;;;;;;;;;33.93;38.57;100523.66;1804665;78;20145;-77
2021/06/25 06:39:42;;;;;;;;;;;;;;;34.02;38.70;100525.98;1804982;78;20192;-76
2021/06/25 06:42:09;;;;;;;;;;;;;;;34.11;39.21;100526.88;1803463;78;20155;-77
2021/06/25 06:44:35;;;;;;;;;;;;;;;34.19;39.03;100534.47;1803507;78;20179;-77
2021/06/25 06:47:02;;;;;;;;;;;;;;;34.26;39.18;100539.03;1799005;78;20724;-76
2021/06/25 06:49:34;;;;;;;;;;;;;;;34.35;38.99;100537.72;1802887;78;20207;-77
2021/06/25 06:52:05;;;;;;;;;;;;;;;34.44;38.69;100530.83;1798548;78;20136;-77
2021/06/25 06:54:34;;;;;;;;;;;;;;;34.51;38.71;100525.66;1805862;78;20143;-77
2021/06/25 06:57:01;;;;;;;;;;;;;;;34.60;38.82;100529.89;1800431;78;20151;-76
2021/06/25 06:59:27;;;;;;;;;;;;;;;34.67;38.64;100526.09;1802592;78;20138;-76
2021/06/25 07:01:57;;;;;;;;;;;;;;;34.74;38.67;100530.05;1800459;78;20477;-78
2021/06/25 07:04:21;;;;;;;;;;;;;;;34.83;38.60;100523.96;1801176;78;20144;-77
2021/06/25 07:06:48;;;;;;;;;;;;;;;34.94;38.67;100523.14;1767864;79;20479;-77
2021/06/25 07:09:14;;;;;;;;;;;;;;;35.07;38.35;100535.35;1799275;78;20212;-77
2021/06/25 07:11:40;;;;;;;;;;;;;;;35.21;38.10;100527.70;1798981;78;20700;-77
2021/06/25 07:14:06;;;;;;;;;;;;;;;35.33;38.02;100527.89;1802437;78;20194;-77
2021/06/25 07:16:33;;;;;;;;;;;;;;;35.50;37.83;100533.31;1774728;79;20501;-78
2021/06/25 07:19:00;;;;;;;;;;;;;;;35.63;37.62;100534.33;1736491;81;20140;-78
2021/06/25 07:21:33;;;;;;;;;;;;;;;35.78;37.47;100543.03;1803973;78;20159;-78
2021/06/25 07:24:02;;;;;;;;;;;;;;;35.92;37.39;100547.06;1797268;78;20136;-77
2021/06/25 07:26:35;;;;;;;;;;;;;;;36.05;36.91;100546.70;1800745;78;20171;-77
2021/06/25 07:29:14;;;;;;;;;;;;;;;;;;;;;
2021/06/25 07:31:52;;;;;;;;;;;;;;;36.27;36.37;100550.72;1789271;78;20194;-77
2021/06/25 07:34:33;;;;;;;;;;;;;;;36.36;35.98;100540.14;1787580;78;20502;-77
2021/06/25 07:37:01;;;;;;;;;;;;;;;36.46;35.98;100531.45;1772745;78;20144;-77
2021/06/25 07:39:29;;;;;;;;;;;;;;;36.57;36.03;100530.80;1800012;78;20143;-77
2021/06/25 07:41:55;;;;;;;;;;;;;;;36.65;35.79;100534.69;1777204;78;20467;-77
2021/06/25 07:44:22;;;;;;;;;;;;;;;36.70;35.82;100535.94;1803405;78;20143;-77
2021/06/25 07:46:48;;;;;;;;;;;;;;;36.75;35.67;100528.78;1802817;78;20152;-77
2021/06/25 07:49:19;;;;;;;;;;;;;;;36.79;35.55;100528.91;1800296;78;20171;-77
2021/06/25 07:51:48;;;;;;;;;;;;;;;36.81;35.60;100533.02;1774678;78;20493;-77
2021/06/25 07:54:14;;;;;;;;;;;;;;;36.85;35.52;100536.55;1772780;79;21259;-77
2021/06/25 07:56:47;;;;;;;;;;;;;;;36.88;35.33;100540.05;1768363;79;20142;-77
2021/06/25 07:59:13;;;;;;;;;;;;;;;36.92;35.36;100536.88;1723130;81;20490;-77
2021/06/25 08:01:39;;;;;;;;;;;;;;;36.94;35.14;100540.16;1734976;81;20635;-78
2021/06/25 08:04:05;;;;;;;;;;;;;;;36.96;34.76;100533.08;1766042;79;20513;-77
2021/06/25 08:06:31;;;;;;;;;;;;;;;36.97;34.37;100536.69;1798198;78;20140;-76
2021/06/25 08:08:58;;;;;;;;;;;;;;;36.97;34.61;100542.27;1800399;78;20175;-76
2021/06/25 08:11:25;;;;;;;;;;;;;;;36.97;34.80;100536.11;1801403;78;20175;-76
2021/06/25 08:14:02;;;;;;;;;;;;;;;36.95;34.70;100531.45;1804247;78;20191;-77
2021/06/25 08:16:36;;;;;;;;;;;;;;;36.95;34.63;100526.44;1799330;78;20134;-77
2021/06/25 08:19:02;;;;;;;;;;;;;;;36.95;34.69;100521.67;1800600;78;20159;-76
2021/06/25 08:21:29;;;;;;;;;;;;;;;36.94;34.63;100512.25;1803173;78;20491;-76
2021/06/25 08:23:55;;;;;;;;;;;;;;;36.93;34.34;100511.43;1800239;78;20203;-77
2021/06/25 08:26:21;;;;;;;;;;;;;;;36.90;34.28;100512.64;1774281;79;20162;-77
2021/06/25 08:28:48;;;;;;;;;;;;;;;36.88;34.60;100516.33;1773559;79;20216;-76
2021/06/25 08:31:14;;;;;;;;;;;;;;;36.86;34.77;100512.48;1773145;79;21545;-76
2021/06/25 08:33:41;;;;;;;;;;;;;;;36.85;34.67;100510.03;1739662;81;20173;-76
2021/06/25 08:36:07;;;;;;;;;;;;;;;36.85;34.67;100512.24;1742275;80;20166;-76
2021/06/25 08:38:34;;;;;;;;;;;;;;;36.84;34.90;100510.61;1769346;79;20177;-77
2021/06/25 08:41:07;;;;;;;;;;;;;;;36.85;34.73;100509.45;1770627;79;20156;-77
2021/06/25 08:43:38;;;;;;;;;;;;;;;36.85;34.48;100512.24;1723620;81;20478;-77
2021/06/25 08:46:04;;;;;;;;;;;;;;;36.82;34.56;100502.55;1802396;78;20159;-77
2021/06/25 08:48:30;;;;;;;;;;;;;;;36.85;34.84;100511.43;1801602;78;20899;-77
2021/06/25 08:50:57;;;;;;;;;;;;;;;36.85;35.15;100512.24;1800391;78;20203;-77
2021/06/25 08:53:23;;;;;;;;;;;;;;;36.87;35.22;100509.11;1804507;78;20633;-77
2021/06/25 08:55:51;;;;;;;;;;;;;;;36.91;35.06;100512.88;1771394;79;20188;-77
2021/06/25 08:58:18;;;;;;;;;;;;;;;36.92;35.05;100505.58;1770737;79;20140;-77
2021/06/25 09:00:44;;;;;;;;;;;;;;;36.94;35.01;100506.66;1771468;79;20139;-76
2021/06/25 09:03:25;;;;;;;;;;;;;;;36.95;34.86;100508.30;1742540;81;20185;-78
2021/06/25 09:05:52;;;;;;;;;;;;;;;36.95;34.59;100507.72;1800585;78;20171;-77
2021/06/25 09:08:29;;;;;;;;;;;;;;;36.94;34.40;100496.89;1798702;78;20806;-77
2021/06/25 09:10:59;;;;;;;;;;;;;;;36.93;34.35;100493.28;1796168;78;20166;-77
2021/06/25 09:13:36;;;;;;;;;;;;;;;36.91;34.48;100488.59;1801853;78;20180;-75
2021/06/25 09:16:24;;;;;;;;;;;;;;;36.89;34.55;100483.91;1801262;78;20168;-76
2021/06/25 09:19:07;;;;;;;;;;;;;;;36.91;34.72;100489.14;1799607;78;20162;-77
2021/06/25 09:21:36;;;;;;;;;;;;;;;36.88;34.80;100487.83;1800434;78;20139;-77
2021/06/25 09:24:26;;;;;;;;;;;;;;;36.90;34.82;100490.30;1802236;78;20147;-78
2021/06/25 09:27:02;;;;;;;;;;;;;;;36.87;34.67;100489.56;1776313;78;20401;-76
2021/06/25 09:29:33;;;;;;;;;;;;;;;36.86;34.71;100499.10;1807686;78;20539;-76
2021/06/25 09:32:01;;;;;;;;;;;;;;;36.82;34.64;100487.78;1808549;78;20145;-76
2021/06/25 09:34:49;;;;;;;;;;;;;;;36.79;34.64;100483.70;1805357;78;20401;-77
2021/06/25 09:37:18;;;;;;;;;;;;;;;36.77;34.76;100476.80;1803068;78;20204;-77
2021/06/25 09:39:59;;;;;;;;;;;;;;;36.73;34.91;100480.83;1801973;78;20202;-76
2021/06/25 09:42:27;;;;;;;;;;;;;;;36.70;35.03;100477.33;1790389;78;20159;-76
2021/06/25 09:44:59;;;;;;;;;;;;;;;36.65;35.06;100477.48;1803763;78;20088;-75
2021/06/25 09:47:35;;;;;;;;;;;;;;;36.62;35.01;100475.38;1804143;78;21474;-76
2021/06/25 09:50:07;;;;;;;;;;;;;;;36.56;35.29;100469.72;1802188;78;20479;-75
2021/06/25 09:53:01;;;;;;;;;;;;;;;36.53;35.69;100472.61;1803309;78;20199;-76
2021/06/25 10:04:01;;;;;;;;;;;;;;;36.36;35.80;100457.27;1769227;79;20146;-77
2021/06/25 10:06:28;;;;;;;;;;;;;;;36.33;36.02;100458.74;1768690;79;20151;-77
2021/06/25 10:08:55;;;;;;;;;;;;;;;36.31;35.37;100461.05;1738619;81;20433;-76
2021/06/25 10:11:22;;;;;;;;;;;;;;;36.27;35.58;100460.66;1773451;79;20476;-77
2021/06/25 10:13:49;;;;;;;;;;;;;;;36.27;35.79;100466.23;1740010;81;20152;-76
2021/06/25 10:16:17;;;;;;;;;;;;;;;36.23;36.22;100454.91;1773889;79;20141;-76
2021/06/25 10:18:49;;;;;;;;;;;;;;;36.21;35.95;100458.63;1804264;78;20163;-76
2021/06/25 10:21:17;;;;;;;;;;;;;;;36.21;36.30;100452.23;1774027;79;20182;-77
2021/06/25 10:23:49;;;;;;;;;;;;;;;36.20;36.22;100456.98;1806509;78;20188;-77
2021/06/25 10:26:18;;;;;;;;;;;;;;;36.18;36.21;100452.88;1799550;78;20182;-76
2021/06/25 10:28:47;;;;;;;;;;;;;;;36.18;35.43;100445.91;1799939;78;20128;-75
2021/06/25 10:31:15;;;;;;;;;;;;;;;36.14;35.19;100444.34;1799562;78;20170;-76
2021/06/25 10:33:41;;;;;;;;;;;;;;;36.12;35.29;100453.63;1802095;78;20175;-76
2021/06/25 10:36:10;;;;;;;;;;;;;;;36.10;35.46;100453.70;1799651;78;20612;-75
2021/06/25 10:38:41;;;;;;;;;;;;;;;36.07;35.43;100445.44;1774586;78;20605;-75
2021/06/25 10:41:07;;;;;;;;;;;;;;;36.05;35.26;100451.91;1802547;78;20135;-76
2021/06/25 10:43:43;;;;;;;;;;;;;;;36.03;35.59;100454.22;1805013;78;20203;-75
2021/06/25 10:46:32;;;;;;;;;;;;;;;36.01;35.60;100446.16;1775187;78;20160;-76
2021/06/25 10:49:12;;;;;;;;;;;;;;;36.01;35.42;100445.34;1803530;78;20140;-76
2021/06/25 10:51:41;;;;;;;;;;;;;;;35.99;35.32;100447.66;1798766;78;20250;-77
2021/06/25 10:54:25;;;;;;;;;;;;;;;35.98;35.60;100455.20;1800537;78;20197;-77
2021/06/25 10:56:56;;;;;;;;;;;;;;;35.96;35.66;100440.76;1798930;78;20619;-76
2021/06/25 10:59:29;;;;;;;;;;;;;;;35.97;35.41;100452.72;1797662;78;20214;-77
2021/06/25 11:02:02;;;;;;;;;;;;;;;35.95;35.41;100441.91;1771968;79;20175;-77
2021/06/25 11:04:37;;;;;;;;;;;;;;;35.95;35.29;100445.25;1768710;79;20776;-76
2021/06/25 11:07:10;;;;;;;;;;;;;;;35.95;35.51;100448.03;1803558;78;20151;-75
2021/06/25 11:09:58;;;;;;;;;;;;;;;35.92;35.47;100450.89;1803991;78;20146;-75
2021/06/25 11:12:29;;;;;;;;;;;;;;;35.93;35.23;100444.73;1803051;78;20163;-76
2021/06/25 11:15:09;;;;;;;;;;;;;;;35.91;35.31;100445.66;1800954;78;20138;-76
2021/06/25 11:18:05;;;;;;;;;;;;;;;35.90;35.06;100441.23;1803765;78;20423;-77
2021/06/25 11:20:33;;;;;;;;;;;;;;;35.89;35.51;100436.81;1799566;78;20444;-76
2021/06/25 11:23:11;;;;;;;;;;;;;;;35.88;35.42;100442.94;1801694;78;20195;-77
2021/06/25 11:25:47;;;;;;;;;;;;;;;35.86;35.27;100438.28;1775766;78;20144;-77
2021/06/25 11:28:38;;;;;;;;;;;;;;;35.86;35.54;100442.46;1794779;78;20245;-78
2021/06/25 11:31:21;;;;;;;;;;;;;;;35.85;35.31;100443.61;1801260;78;20428;-78
2021/06/25 11:33:56;;;;;;;;;;;;;;;35.94;35.16;100448.61;1804905;78;20171;-78
2021/06/25 11:36:44;;;;;;;;;;;;;;;35.85;35.40;100444.19;1802427;78;20172;-77
2021/06/25 11:39:16;;;;;;;;;;;;;;;35.86;35.58;100444.44;1799049;78;20248;-77
2021/06/25 11:41:58;;;;;;;;;;;;;;;35.85;35.46;100435.83;1799344;78;20437;-78
2021/06/25 11:44:34;;;;;;;;;;;;;;;35.83;35.62;100436.95;1807310;78;20500;-77
2021/06/25 11:47:08;;;;;;;;;;;;;;;35.83;36.07;100435.56;1802514;78;20151;-76
2021/06/25 11:49:47;;;;;;;;;;;;;;;35.83;36.29;100438.34;1805695;78;20401;-77
2021/06/25 11:52:12;;;;;;;;;;;;;;;35.82;36.17;100431.72;1797586;78;20518;-75
2021/06/25 11:54:39;;;;;;;;;;;;;;;35.82;36.39;100434.51;1773316;79;20143;-77
2021/06/25 11:57:06;;;;;;;;;;;;;;;35.79;36.47;100429.03;1767279;79;20183;-76
2021/06/25 11:59:33;;;;;;;;;;;;;;;35.79;36.14;100420.67;1756990;79;20216;-77
2021/06/25 12:02:00;;;;;;;;;;;;;;;35.79;36.02;100422.06;1748285;81;20149;-77
2021/06/25 12:04:41;;;;;;;;;;;;;;;35.79;35.62;100423.45;1781958;79;20134;-77
2021/06/25 12:07:10;;;;;;;;;;;;;;;35.78;35.50;100422.38;1805158;78;20560;-78
2021/06/25 12:09:43;;;;;;;;;;;;;;;35.77;35.57;100422.13;1810175;78;20182;-77
2021/06/25 12:12:10;;;;;;;;;;;;;;;35.76;35.34;100422.71;1795203;78;20433;-76
2021/06/25 12:14:45;;;;;;;;;;;;;;;35.76;34.98;100421.89;1810247;78;20158;-77
2021/06/25 12:17:13;;;;;;;;;;;;;;;35.74;35.09;100420.81;1803247;78;20202;-77
2021/06/25 12:19:40;;;;;;;;;;;;;;;35.71;35.61;100420.09;1807485;78;20167;-77
2021/06/25 12:22:07;;;;;;;;;;;;;;;35.71;35.52;100415.91;1808255;78;20159;-76
2021/06/25 12:24:48;;;;;;;;;;;;;;;35.68;35.89;100410.98;1775622;79;20135;-76
2021/06/25 12:27:15;;;;;;;;;;;;;;;35.67;36.00;100407.96;1776378;79;20188;-78
2021/06/25 12:29:42;;;;;;;;;;;;;;;35.65;35.86;100408.84;1800157;78;20646;-77
2021/06/25 12:32:19;;;;;;;;;;;;;;;35.64;35.39;100398.04;1808777;78;20421;-76
2021/06/25 12:34:47;;;;;;;;;;;;;;;35.61;35.41;100395.90;1801612;78;20230;-76
2021/06/25 12:37:14;;;;;;;;;;;;;;;35.61;34.92;100394.50;1798909;78;20586;-76
2021/06/25 12:39:44;;;;;;;;;;;;;;;35.58;34.93;100388.45;1804463;78;20178;-76
2021/06/25 12:42:11;;;;;;;;;;;;;;;35.56;35.04;100380.98;1801339;78;20377;-77
2021/06/25 12:44:39;;;;;;;;;;;;;;;35.55;35.19;100373.78;1779458;78;20444;-76
2021/06/25 12:47:06;;;;;;;;;;;;;;;35.55;35.37;100376.56;1804045;78;20143;-76
2021/06/25 12:49:35;;;;;;;;;;;;;;;35.54;35.76;100362.97;1802493;78;20302;-77
2021/06/25 12:52:02;;;;;;;;;;;;;;;35.52;35.84;100368.88;1805888;78;20462;-76
2021/06/25 12:54:31;;;;;;;;;;;;;;;35.51;35.75;100354.69;1788801;79;20163;-76
2021/06/25 12:56:57;;;;;;;;;;;;;;;35.51;35.62;100363.04;1802416;78;20203;-76
2021/06/25 12:59:24;;;;;;;;;;;;;;;35.51;35.40;100357.47;1813171;78;20157;-76
2021/06/25 13:01:51;;;;;;;;;;;;;;;35.52;35.48;100355.50;1808064;78;20795;-76
2021/06/25 13:04:30;;;;;;;;;;;;;;;35.52;35.41;100352.71;1774848;79;20143;-76